sensor_id;sensor_type;location;lat;lon;timestamp;temperature;humidity
5578;DHT22;2811;51.900;10.734;2022-07-06T00:00:52;17.50;99.90
5578;DHT22;2811;51.900;10.734;2022-07-06T00:03:19;17.50;99.90
5578;DHT22;2811;51.900;10.734;2022-07-06T00:05:46;17.40;99.90
5578;DHT22;2811;51.900;10.734;2022-07-06T00:08:13;17.20;99.90
5578;DHT22;2811;51.900;10.734;2022-07-06T00:10:40;17.10;99.90
5578;DHT22;2811;51.900;10.734;2022-07-06T00:13:06;17.00;99.90
5578;DHT22;2811;51.900;10.734;2022-07-06T00:15:33;17.00;99.90
5578;DHT22;2811;51.900;10.734;2022-07-06T00:17:59;16.90;99.90
5578;DHT22;2811;51.900;10.734;2022-07-06T00:20:26;16.90;99.90
5578;DHT22;2811;51.900;10.734;2022-07-06T00:22:54;16.90;99.90
5578;DHT22;2811;51.900;10.734;2022-07-06T00:25:21;16.80;99.90
5578;DHT22;2811;51.900;10.734;2022-07-06T00:27:47;16.70;99.90
5578;DHT22;2811;51.900;10.734;2022-07-06T00:30:14;16.60;99.90
5578;DHT22;2811;51.900;10.734;2022-07-06T00:32:40;16.60;99.90
5578;DHT22;2811;51.900;10.734;2022-07-06T00:35:07;16.60;99.90
5578;DHT22;2811;51.900;10.734;2022-07-06T00:37:34;16.50;99.90
5578;DHT22;2811;51.900;10.734;2022-07-06T00:40:02;16.50;99.90
5578;DHT22;2811;51.900;10.734;2022-07-06T00:42:29;16.50;99.90
5578;DHT22;2811;51.900;10.734;2022-07-06T00:44:56;16.50;99.90
5578;DHT22;2811;51.900;10.734;2022-07-06T00:47:22;16.50;99.90
5578;DHT22;2811;51.900;10.734;2022-07-06T00:49:49;16.50;99.90
5578;DHT22;2811;51.900;10.734;2022-07-06T00:52:33;16.50;99.90
5578;DHT22;2811;51.900;10.734;2022-07-06T00:55:01;16.40;99.90
5578;DHT22;2811;51.900;10.734;2022-07-06T00:57:28;16.40;99.90
5578;DHT22;2811;51.900;10.734;2022-07-06T00:59:55;16.30;99.90
5578;DHT22;2811;51.900;10.734;2022-07-06T01:02:22;16.30;99.90
5578;DHT22;2811;51.900;10.734;2022-07-06T01:04:49;16.20;99.90
5578;DHT22;2811;51.900;10.734;2022-07-06T01:07:16;16.20;99.90
5578;DHT22;2811;51.900;10.734;2022-07-06T01:09:42;16.20;99.90
5578;DHT22;2811;51.900;10.734;2022-07-06T01:12:11;16.10;99.90
5578;DHT22;2811;51.900;10.734;2022-07-06T01:14:37;16.10;99.90
5578;DHT22;2811;51.900;10.734;2022-07-06T01:17:04;15.90;99.90
5578;DHT22;2811;51.900;10.734;2022-07-06T01:19:31;15.80;99.90
5578;DHT22;2811;51.900;10.734;2022-07-06T01:21:59;15.70;99.90
5578;DHT22;2811;51.900;10.734;2022-07-06T01:24:26;15.70;99.90
5578;DHT22;2811;51.900;10.734;2022-07-06T01:26:53;15.70;99.90
5578;DHT22;2811;51.900;10.734;2022-07-06T01:29:19;15.70;99.90
5578;DHT22;2811;51.900;10.734;2022-07-06T01:31:47;15.70;99.90
5578;DHT22;2811;51.900;10.734;2022-07-06T01:34:15;15.70;99.90
5578;DHT22;2811;51.900;10.734;2022-07-06T01:36:43;15.70;99.90
5578;DHT22;2811;51.900;10.734;2022-07-06T01:39:11;15.60;99.90
5578;DHT22;2811;51.900;10.734;2022-07-06T01:41:38;15.50;99.90
5578;DHT22;2811;51.900;10.734;2022-07-06T01:44:05;15.50;99.90
5578;DHT22;2811;51.900;10.734;2022-07-06T01:46:32;15.60;99.90
5578;DHT22;2811;51.900;10.734;2022-07-06T01:48:59;15.70;99.90
5578;DHT22;2811;51.900;10.734;2022-07-06T01:51:26;15.70;99.90
5578;DHT22;2811;51.900;10.734;2022-07-06T01:53:52;15.70;99.90
5578;DHT22;2811;51.900;10.734;2022-07-06T01:56:21;15.60;99.90
5578;DHT22;2811;51.900;10.734;2022-07-06T01:58:48;15.50;99.90
5578;DHT22;2811;51.900;10.734;2022-07-06T02:01:15;15.50;99.90
5578;DHT22;2811;51.900;10.734;2022-07-06T02:03:43;15.60;99.90
5578;DHT22;2811;51.900;10.734;2022-07-06T02:06:10;15.60;99.90
5578;DHT22;2811;51.900;10.734;2022-07-06T02:08:41;15.60;99.90
5578;DHT22;2811;51.900;10.734;2022-07-06T02:11:09;15.60;99.90
5578;DHT22;2811;51.900;10.734;2022-07-06T02:13:37;15.50;99.90
5578;DHT22;2811;51.900;10.734;2022-07-06T02:16:04;15.60;99.90
5578;DHT22;2811;51.900;10.734;2022-07-06T02:18:31;15.60;99.90
5578;DHT22;2811;51.900;10.734;2022-07-06T02:20:57;15.50;99.90
5578;DHT22;2811;51.900;10.734;2022-07-06T02:23:24;15.30;99.90
5578;DHT22;2811;51.900;10.734;2022-07-06T02:25:51;15.20;99.90
5578;DHT22;2811;51.900;10.734;2022-07-06T02:28:18;15.30;99.90
5578;DHT22;2811;51.900;10.734;2022-07-06T02:30:46;15.40;99.90
5578;DHT22;2811;51.900;10.734;2022-07-06T02:33:12;15.30;99.90
5578;DHT22;2811;51.900;10.734;2022-07-06T02:35:39;15.30;99.90
5578;DHT22;2811;51.900;10.734;2022-07-06T02:38:08;15.30;99.90
5578;DHT22;2811;51.900;10.734;2022-07-06T02:40:35;15.30;99.90
5578;DHT22;2811;51.900;10.734;2022-07-06T02:43:01;15.40;99.90
5578;DHT22;2811;51.900;10.734;2022-07-06T02:45:28;15.30;99.90
5578;DHT22;2811;51.900;10.734;2022-07-06T02:47:56;15.40;99.90
5578;DHT22;2811;51.900;10.734;2022-07-06T02:50:23;15.30;99.90
5578;DHT22;2811;51.900;10.734;2022-07-06T02:52:49;15.10;99.90
5578;DHT22;2811;51.900;10.734;2022-07-06T02:55:16;15.20;99.90
5578;DHT22;2811;51.900;10.734;2022-07-06T02:57:43;15.20;99.90
5578;DHT22;2811;51.900;10.734;2022-07-06T03:00:10;15.10;99.90
5578;DHT22;2811;51.900;10.734;2022-07-06T03:02:36;15.00;99.90
5578;DHT22;2811;51.900;10.734;2022-07-06T03:05:05;15.10;99.90
5578;DHT22;2811;51.900;10.734;2022-07-06T03:07:32;15.10;99.90
5578;DHT22;2811;51.900;10.734;2022-07-06T03:09:59;15.20;99.90
5578;DHT22;2811;51.900;10.734;2022-07-06T03:12:25;15.40;99.90
5578;DHT22;2811;51.900;10.734;2022-07-06T03:14:52;15.50;99.90
5578;DHT22;2811;51.900;10.734;2022-07-06T03:17:19;15.50;99.90
5578;DHT22;2811;51.900;10.734;2022-07-06T03:19:47;15.50;99.90
5578;DHT22;2811;51.900;10.734;2022-07-06T03:22:14;15.50;99.90
5578;DHT22;2811;51.900;10.734;2022-07-06T03:24:41;15.40;99.90
5578;DHT22;2811;51.900;10.734;2022-07-06T03:27:08;15.30;99.90
5578;DHT22;2811;51.900;10.734;2022-07-06T03:29:34;15.40;99.90
5578;DHT22;2811;51.900;10.734;2022-07-06T03:32:01;15.30;99.90
5578;DHT22;2811;51.900;10.734;2022-07-06T03:34:28;15.40;99.90
5578;DHT22;2811;51.900;10.734;2022-07-06T03:36:54;15.40;99.90
5578;DHT22;2811;51.900;10.734;2022-07-06T03:39:22;15.30;99.90
5578;DHT22;2811;51.900;10.734;2022-07-06T03:41:49;15.30;99.90
5578;DHT22;2811;51.900;10.734;2022-07-06T03:44:15;15.30;99.90
5578;DHT22;2811;51.900;10.734;2022-07-06T03:46:42;15.20;99.90
5578;DHT22;2811;51.900;10.734;2022-07-06T03:49:09;15.20;99.90
5578;DHT22;2811;51.900;10.734;2022-07-06T03:51:35;15.20;99.90
5578;DHT22;2811;51.900;10.734;2022-07-06T03:54:03;15.10;99.90
5578;DHT22;2811;51.900;10.734;2022-07-06T03:56:31;15.10;99.90
5578;DHT22;2811;51.900;10.734;2022-07-06T03:58:59;15.10;99.90
5578;DHT22;2811;51.900;10.734;2022-07-06T04:01:26;15.20;99.90
5578;DHT22;2811;51.900;10.734;2022-07-06T04:03:53;15.20;99.90
5578;DHT22;2811;51.900;10.734;2022-07-06T04:06:19;15.20;99.90
5578;DHT22;2811;51.900;10.734;2022-07-06T04:08:46;15.30;99.90
5578;DHT22;2811;51.900;10.734;2022-07-06T04:11:13;15.30;99.90
5578;DHT22;2811;51.900;10.734;2022-07-06T04:13:41;15.40;99.90
5578;DHT22;2811;51.900;10.734;2022-07-06T04:16:07;15.40;99.90
5578;DHT22;2811;51.900;10.734;2022-07-06T04:18:34;15.50;99.90
5578;DHT22;2811;51.900;10.734;2022-07-06T04:21:01;15.60;99.90
5578;DHT22;2811;51.900;10.734;2022-07-06T04:23:29;15.70;99.90
5578;DHT22;2811;51.900;10.734;2022-07-06T04:25:55;15.70;99.90
5578;DHT22;2811;51.900;10.734;2022-07-06T04:28:22;15.70;99.90
5578;DHT22;2811;51.900;10.734;2022-07-06T04:30:50;15.70;99.90
5578;DHT22;2811;51.900;10.734;2022-07-06T04:33:17;15.80;99.90
5578;DHT22;2811;51.900;10.734;2022-07-06T04:35:43;15.80;99.90
5578;DHT22;2811;51.900;10.734;2022-07-06T04:38:10;15.70;99.90
5578;DHT22;2811;51.900;10.734;2022-07-06T04:40:37;15.70;99.90
5578;DHT22;2811;51.900;10.734;2022-07-06T04:43:04;15.70;99.90
5578;DHT22;2811;51.900;10.734;2022-07-06T04:45:31;15.80;99.90
5578;DHT22;2811;51.900;10.734;2022-07-06T04:47:59;15.80;99.90
5578;DHT22;2811;51.900;10.734;2022-07-06T04:50:25;15.80;99.90
5578;DHT22;2811;51.900;10.734;2022-07-06T04:52:52;15.90;99.90
5578;DHT22;2811;51.900;10.734;2022-07-06T04:55:19;16.00;99.90
5578;DHT22;2811;51.900;10.734;2022-07-06T04:57:46;16.10;99.90
5578;DHT22;2811;51.900;10.734;2022-07-06T05:00:13;16.10;99.90
5578;DHT22;2811;51.900;10.734;2022-07-06T05:02:40;16.20;99.90
5578;DHT22;2811;51.900;10.734;2022-07-06T05:05:08;16.30;99.90
5578;DHT22;2811;51.900;10.734;2022-07-06T05:07:35;16.30;99.90
5578;DHT22;2811;51.900;10.734;2022-07-06T05:10:06;16.30;99.90
5578;DHT22;2811;51.900;10.734;2022-07-06T05:12:32;16.20;99.90
5578;DHT22;2811;51.900;10.734;2022-07-06T05:14:59;16.30;99.90
5578;DHT22;2811;51.900;10.734;2022-07-06T05:17:26;16.40;99.90
5578;DHT22;2811;51.900;10.734;2022-07-06T05:19:52;16.50;99.90
5578;DHT22;2811;51.900;10.734;2022-07-06T05:22:20;16.70;99.90
5578;DHT22;2811;51.900;10.734;2022-07-06T05:24:47;16.90;99.90
5578;DHT22;2811;51.900;10.734;2022-07-06T05:27:14;17.00;99.90
5578;DHT22;2811;51.900;10.734;2022-07-06T05:29:40;17.00;99.90
5578;DHT22;2811;51.900;10.734;2022-07-06T05:32:07;17.10;99.90
5578;DHT22;2811;51.900;10.734;2022-07-06T05:34:34;17.00;99.90
5578;DHT22;2811;51.900;10.734;2022-07-06T05:37:02;16.90;99.90
5578;DHT22;2811;51.900;10.734;2022-07-06T05:39:30;17.00;99.90
5578;DHT22;2811;51.900;10.734;2022-07-06T05:41:56;17.00;99.90
5578;DHT22;2811;51.900;10.734;2022-07-06T05:44:23;17.00;99.90
5578;DHT22;2811;51.900;10.734;2022-07-06T05:46:49;17.20;99.90
5578;DHT22;2811;51.900;10.734;2022-07-06T05:49:16;17.50;99.90
5578;DHT22;2811;51.900;10.734;2022-07-06T05:52:00;17.70;99.90
5578;DHT22;2811;51.900;10.734;2022-07-06T05:54:27;17.80;99.90
5578;DHT22;2811;51.900;10.734;2022-07-06T05:56:55;17.60;99.90
5578;DHT22;2811;51.900;10.734;2022-07-06T05:59:21;17.40;99.90
5578;DHT22;2811;51.900;10.734;2022-07-06T06:01:48;17.20;99.90
5578;DHT22;2811;51.900;10.734;2022-07-06T06:04:14;17.00;99.90
5578;DHT22;2811;51.900;10.734;2022-07-06T06:06:41;17.10;99.90
5578;DHT22;2811;51.900;10.734;2022-07-06T06:09:07;17.10;99.90
5578;DHT22;2811;51.900;10.734;2022-07-06T06:11:34;17.20;99.90
5578;DHT22;2811;51.900;10.734;2022-07-06T06:14:02;17.30;99.90
5578;DHT22;2811;51.900;10.734;2022-07-06T06:16:29;17.20;99.90
5578;DHT22;2811;51.900;10.734;2022-07-06T06:18:56;17.20;99.90
5578;DHT22;2811;51.900;10.734;2022-07-06T06:21:22;17.30;99.90
5578;DHT22;2811;51.900;10.734;2022-07-06T06:23:50;17.70;99.90
5578;DHT22;2811;51.900;10.734;2022-07-06T06:26:17;18.00;99.90
5578;DHT22;2811;51.900;10.734;2022-07-06T06:28:43;18.10;99.90
5578;DHT22;2811;51.900;10.734;2022-07-06T06:31:11;18.30;99.90
5578;DHT22;2811;51.900;10.734;2022-07-06T06:33:38;18.10;99.90
5578;DHT22;2811;51.900;10.734;2022-07-06T06:36:05;18.10;99.90
5578;DHT22;2811;51.900;10.734;2022-07-06T06:38:31;18.20;99.90
5578;DHT22;2811;51.900;10.734;2022-07-06T06:41:00;18.10;99.90
5578;DHT22;2811;51.900;10.734;2022-07-06T06:43:27;17.70;99.90
5578;DHT22;2811;51.900;10.734;2022-07-06T06:45:53;17.60;99.90
5578;DHT22;2811;51.900;10.734;2022-07-06T06:48:21;17.70;99.90
5578;DHT22;2811;51.900;10.734;2022-07-06T06:50:48;17.90;99.90
5578;DHT22;2811;51.900;10.734;2022-07-06T06:53:15;18.10;99.90
5578;DHT22;2811;51.900;10.734;2022-07-06T06:55:41;18.20;99.90
5578;DHT22;2811;51.900;10.734;2022-07-06T06:58:08;18.20;99.90
5578;DHT22;2811;51.900;10.734;2022-07-06T07:00:35;18.20;99.90
5578;DHT22;2811;51.900;10.734;2022-07-06T07:03:02;18.40;99.90
5578;DHT22;2811;51.900;10.734;2022-07-06T07:05:30;18.40;99.90
5578;DHT22;2811;51.900;10.734;2022-07-06T07:07:56;18.70;99.90
5578;DHT22;2811;51.900;10.734;2022-07-06T07:10:25;19.20;99.90
5578;DHT22;2811;51.900;10.734;2022-07-06T07:12:52;19.80;99.90
5578;DHT22;2811;51.900;10.734;2022-07-06T07:15:18;20.20;99.90
5578;DHT22;2811;51.900;10.734;2022-07-06T07:17:45;20.40;99.90
5578;DHT22;2811;51.900;10.734;2022-07-06T07:20:12;20.80;99.90
5578;DHT22;2811;51.900;10.734;2022-07-06T07:22:40;20.80;99.40
5578;DHT22;2811;51.900;10.734;2022-07-06T07:25:07;20.60;99.70
5578;DHT22;2811;51.900;10.734;2022-07-06T07:27:34;20.40;99.70
5578;DHT22;2811;51.900;10.734;2022-07-06T07:30:00;19.90;99.90
5578;DHT22;2811;51.900;10.734;2022-07-06T07:32:27;19.50;99.90
5578;DHT22;2811;51.900;10.734;2022-07-06T07:34:53;19.30;99.90
5578;DHT22;2811;51.900;10.734;2022-07-06T07:37:20;19.10;99.90
5578;DHT22;2811;51.900;10.734;2022-07-06T07:39:48;19.20;99.90
5578;DHT22;2811;51.900;10.734;2022-07-06T07:42:15;19.00;99.90
5578;DHT22;2811;51.900;10.734;2022-07-06T07:44:41;18.90;99.90
5578;DHT22;2811;51.900;10.734;2022-07-06T07:47:08;19.10;99.90
5578;DHT22;2811;51.900;10.734;2022-07-06T07:49:34;19.20;99.90
5578;DHT22;2811;51.900;10.734;2022-07-06T07:52:01;19.30;99.90
5578;DHT22;2811;51.900;10.734;2022-07-06T07:54:28;19.20;99.90
5578;DHT22;2811;51.900;10.734;2022-07-06T07:56:56;19.00;99.90
5578;DHT22;2811;51.900;10.734;2022-07-06T07:59:23;18.90;99.90
5578;DHT22;2811;51.900;10.734;2022-07-06T08:01:49;19.10;99.90
5578;DHT22;2811;51.900;10.734;2022-07-06T08:04:16;19.30;99.90
5578;DHT22;2811;51.900;10.734;2022-07-06T08:06:43;19.20;99.90
5578;DHT22;2811;51.900;10.734;2022-07-06T08:09:09;19.30;99.90
5578;DHT22;2811;51.900;10.734;2022-07-06T08:11:36;19.60;99.30
5578;DHT22;2811;51.900;10.734;2022-07-06T08:14:04;19.50;99.10
5578;DHT22;2811;51.900;10.734;2022-07-06T08:16:31;19.40;98.60
5578;DHT22;2811;51.900;10.734;2022-07-06T08:18:58;19.10;99.00
5578;DHT22;2811;51.900;10.734;2022-07-06T08:21:24;19.00;99.40
5578;DHT22;2811;51.900;10.734;2022-07-06T08:23:52;19.10;99.10
5578;DHT22;2811;51.900;10.734;2022-07-06T08:26:19;18.90;99.60
5578;DHT22;2811;51.900;10.734;2022-07-06T08:28:45;18.80;99.90
5578;DHT22;2811;51.900;10.734;2022-07-06T08:31:13;19.00;99.80
5578;DHT22;2811;51.900;10.734;2022-07-06T08:33:40;18.90;99.10
5578;DHT22;2811;51.900;10.734;2022-07-06T08:36:07;18.90;99.20
5578;DHT22;2811;51.900;10.734;2022-07-06T08:38:33;19.00;98.20
5578;DHT22;2811;51.900;10.734;2022-07-06T08:41:00;19.10;98.60
5578;DHT22;2811;51.900;10.734;2022-07-06T08:43:27;19.10;98.20
5578;DHT22;2811;51.900;10.734;2022-07-06T08:45:54;19.00;98.00
5578;DHT22;2811;51.900;10.734;2022-07-06T08:48:23;18.80;98.70
5578;DHT22;2811;51.900;10.734;2022-07-06T08:50:50;18.70;98.60
5578;DHT22;2811;51.900;10.734;2022-07-06T08:53:18;18.60;99.40
5578;DHT22;2811;51.900;10.734;2022-07-06T08:55:45;18.40;99.50
5578;DHT22;2811;51.900;10.734;2022-07-06T08:58:11;18.30;99.90
5578;DHT22;2811;51.900;10.734;2022-07-06T09:00:39;18.50;99.90
5578;DHT22;2811;51.900;10.734;2022-07-06T09:03:07;18.70;99.90
5578;DHT22;2811;51.900;10.734;2022-07-06T09:05:40;19.00;99.90
5578;DHT22;2811;51.900;10.734;2022-07-06T09:08:06;19.20;99.80
5578;DHT22;2811;51.900;10.734;2022-07-06T09:10:33;19.50;99.60
5578;DHT22;2811;51.900;10.734;2022-07-06T09:13:04;19.80;98.90
5578;DHT22;2811;51.900;10.734;2022-07-06T09:15:31;19.90;99.00
5578;DHT22;2811;51.900;10.734;2022-07-06T09:17:57;19.80;98.20
5578;DHT22;2811;51.900;10.734;2022-07-06T09:20:24;19.70;98.80
5578;DHT22;2811;51.900;10.734;2022-07-06T09:22:57;19.60;98.50
5578;DHT22;2811;51.900;10.734;2022-07-06T09:25:24;19.70;98.30
5578;DHT22;2811;51.900;10.734;2022-07-06T09:27:51;19.80;98.30
5578;DHT22;2811;51.900;10.734;2022-07-06T09:30:20;19.70;97.30
5578;DHT22;2811;51.900;10.734;2022-07-06T09:32:48;19.50;97.00
5578;DHT22;2811;51.900;10.734;2022-07-06T09:35:20;19.60;97.30
5578;DHT22;2811;51.900;10.734;2022-07-06T09:38:01;19.40;97.90
5578;DHT22;2811;51.900;10.734;2022-07-06T09:40:27;19.00;98.00
5578;DHT22;2811;51.900;10.734;2022-07-06T09:43:08;18.90;98.70
5578;DHT22;2811;51.900;10.734;2022-07-06T09:45:35;18.80;99.50
5578;DHT22;2811;51.900;10.734;2022-07-06T09:48:07;18.80;99.90
5578;DHT22;2811;51.900;10.734;2022-07-06T09:50:38;18.70;99.90
5578;DHT22;2811;51.900;10.734;2022-07-06T09:53:07;18.70;99.50
5578;DHT22;2811;51.900;10.734;2022-07-06T09:55:33;18.70;99.90
5578;DHT22;2811;51.900;10.734;2022-07-06T09:58:00;18.70;99.70
5578;DHT22;2811;51.900;10.734;2022-07-06T10:00:27;18.80;99.90
5578;DHT22;2811;51.900;10.734;2022-07-06T10:02:54;19.10;99.90
5578;DHT22;2811;51.900;10.734;2022-07-06T10:05:22;19.40;99.90
5578;DHT22;2811;51.900;10.734;2022-07-06T10:07:55;19.30;99.60
5578;DHT22;2811;51.900;10.734;2022-07-06T10:10:25;19.50;99.90
5578;DHT22;2811;51.900;10.734;2022-07-06T10:12:54;19.50;98.90
5578;DHT22;2811;51.900;10.734;2022-07-06T10:15:21;19.40;98.20
5578;DHT22;2811;51.900;10.734;2022-07-06T10:17:49;19.70;98.50
5578;DHT22;2811;51.900;10.734;2022-07-06T10:20:17;20.30;96.30
5578;DHT22;2811;51.900;10.734;2022-07-06T10:22:44;20.50;96.00
5578;DHT22;2811;51.900;10.734;2022-07-06T10:25:11;20.80;96.00
5578;DHT22;2811;51.900;10.734;2022-07-06T10:27:40;21.10;95.40
5578;DHT22;2811;51.900;10.734;2022-07-06T10:30:09;21.40;95.40
5578;DHT22;2811;51.900;10.734;2022-07-06T10:32:39;21.30;94.40
5578;DHT22;2811;51.900;10.734;2022-07-06T10:35:08;20.80;94.60
5578;DHT22;2811;51.900;10.734;2022-07-06T10:37:35;20.50;94.40
5578;DHT22;2811;51.900;10.734;2022-07-06T10:40:02;20.30;94.60
5578;DHT22;2811;51.900;10.734;2022-07-06T10:42:49;20.20;94.70
5578;DHT22;2811;51.900;10.734;2022-07-06T10:45:20;20.10;94.70
5578;DHT22;2811;51.900;10.734;2022-07-06T10:48:16;19.80;94.70
5578;DHT22;2811;51.900;10.734;2022-07-06T10:50:47;19.80;94.60
5578;DHT22;2811;51.900;10.734;2022-07-06T10:53:15;19.70;93.70
5578;DHT22;2811;51.900;10.734;2022-07-06T10:55:43;19.50;93.50
5578;DHT22;2811;51.900;10.734;2022-07-06T10:58:13;19.30;93.40
5578;DHT22;2811;51.900;10.734;2022-07-06T11:00:48;19.50;93.80
5578;DHT22;2811;51.900;10.734;2022-07-06T11:03:32;19.60;94.50
5578;DHT22;2811;51.900;10.734;2022-07-06T11:06:00;20.10;94.30
5578;DHT22;2811;51.900;10.734;2022-07-06T11:08:52;20.30;93.90
5578;DHT22;2811;51.900;10.734;2022-07-06T11:11:21;20.50;93.30
5578;DHT22;2811;51.900;10.734;2022-07-06T11:13:51;20.60;92.90
5578;DHT22;2811;51.900;10.734;2022-07-06T11:16:20;20.30;93.10
5578;DHT22;2811;51.900;10.734;2022-07-06T11:18:47;20.10;93.60
5578;DHT22;2811;51.900;10.734;2022-07-06T11:21:19;20.40;93.60
5578;DHT22;2811;51.900;10.734;2022-07-06T11:23:48;20.60;93.50
5578;DHT22;2811;51.900;10.734;2022-07-06T11:26:17;20.70;93.50
5578;DHT22;2811;51.900;10.734;2022-07-06T11:28:46;20.90;92.20
5578;DHT22;2811;51.900;10.734;2022-07-06T11:31:14;20.50;92.60
5578;DHT22;2811;51.900;10.734;2022-07-06T11:33:41;20.10;93.20
5578;DHT22;2811;51.900;10.734;2022-07-06T11:36:15;20.00;92.80
5578;DHT22;2811;51.900;10.734;2022-07-06T11:38:42;20.00;92.80
5578;DHT22;2811;51.900;10.734;2022-07-06T11:41:10;20.10;92.70
5578;DHT22;2811;51.900;10.734;2022-07-06T11:43:37;20.10;93.00
5578;DHT22;2811;51.900;10.734;2022-07-06T11:46:25;20.50;93.30
5578;DHT22;2811;51.900;10.734;2022-07-06T11:48:53;20.80;92.60
5578;DHT22;2811;51.900;10.734;2022-07-06T11:51:20;21.10;92.50
5578;DHT22;2811;51.900;10.734;2022-07-06T11:53:49;21.70;91.60
5578;DHT22;2811;51.900;10.734;2022-07-06T11:56:16;21.90;90.60
5578;DHT22;2811;51.900;10.734;2022-07-06T11:58:45;21.90;90.70
5578;DHT22;2811;51.900;10.734;2022-07-06T12:01:13;21.60;90.70
5578;DHT22;2811;51.900;10.734;2022-07-06T12:03:42;21.40;90.40
5578;DHT22;2811;51.900;10.734;2022-07-06T12:06:14;21.10;91.50
5578;DHT22;2811;51.900;10.734;2022-07-06T12:08:42;21.10;91.30
5578;DHT22;2811;51.900;10.734;2022-07-06T12:11:09;21.20;91.20
5578;DHT22;2811;51.900;10.734;2022-07-06T12:13:36;21.40;91.60
5578;DHT22;2811;51.900;10.734;2022-07-06T12:16:09;21.60;91.50
5578;DHT22;2811;51.900;10.734;2022-07-06T12:18:37;21.70;91.00
5578;DHT22;2811;51.900;10.734;2022-07-06T12:21:07;21.50;89.30
5578;DHT22;2811;51.900;10.734;2022-07-06T12:23:41;21.40;90.40
5578;DHT22;2811;51.900;10.734;2022-07-06T12:26:09;21.00;90.30
5578;DHT22;2811;51.900;10.734;2022-07-06T12:28:36;20.90;88.80
5578;DHT22;2811;51.900;10.734;2022-07-06T12:31:03;21.20;89.00
5578;DHT22;2811;51.900;10.734;2022-07-06T12:33:30;21.30;86.50
5578;DHT22;2811;51.900;10.734;2022-07-06T12:35:56;21.30;86.00
5578;DHT22;2811;51.900;10.734;2022-07-06T12:38:26;21.60;87.70
5578;DHT22;2811;51.900;10.734;2022-07-06T12:40:54;21.80;86.30
5578;DHT22;2811;51.900;10.734;2022-07-06T12:43:38;22.10;87.10
5578;DHT22;2811;51.900;10.734;2022-07-06T12:46:26;22.50;83.90
5578;DHT22;2811;51.900;10.734;2022-07-06T12:48:54;22.60;83.60
5578;DHT22;2811;51.900;10.734;2022-07-06T12:51:21;22.60;84.00
5578;DHT22;2811;51.900;10.734;2022-07-06T12:53:49;22.50;83.70
5578;DHT22;2811;51.900;10.734;2022-07-06T12:56:16;22.40;83.90
5578;DHT22;2811;51.900;10.734;2022-07-06T12:58:59;22.50;85.20
5578;DHT22;2811;51.900;10.734;2022-07-06T13:01:26;22.90;84.90
5578;DHT22;2811;51.900;10.734;2022-07-06T13:03:54;23.10;82.90
5578;DHT22;2811;51.900;10.734;2022-07-06T13:06:31;23.10;80.40
5578;DHT22;2811;51.900;10.734;2022-07-06T13:08:59;23.60;80.60
5578;DHT22;2811;51.900;10.734;2022-07-06T13:11:26;22.70;79.80
5578;DHT22;2811;51.900;10.734;2022-07-06T13:13:53;22.60;80.80
5578;DHT22;2811;51.900;10.734;2022-07-06T13:16:19;21.90;82.60
5578;DHT22;2811;51.900;10.734;2022-07-06T13:18:47;21.50;84.80
5578;DHT22;2811;51.900;10.734;2022-07-06T13:21:14;21.30;86.50
5578;DHT22;2811;51.900;10.734;2022-07-06T13:23:40;21.40;84.30
5578;DHT22;2811;51.900;10.734;2022-07-06T13:26:08;21.40;81.90
5578;DHT22;2811;51.900;10.734;2022-07-06T13:28:35;21.30;82.60
5578;DHT22;2811;51.900;10.734;2022-07-06T13:31:02;21.50;83.80
5578;DHT22;2811;51.900;10.734;2022-07-06T13:33:28;21.90;82.80
5578;DHT22;2811;51.900;10.734;2022-07-06T13:35:55;22.20;81.10
5578;DHT22;2811;51.900;10.734;2022-07-06T13:38:21;22.60;82.80
5578;DHT22;2811;51.900;10.734;2022-07-06T13:40:48;22.50;81.30
5578;DHT22;2811;51.900;10.734;2022-07-06T13:43:16;22.10;82.10
5578;DHT22;2811;51.900;10.734;2022-07-06T13:45:42;21.70;83.70
5578;DHT22;2811;51.900;10.734;2022-07-06T13:48:09;22.10;83.20
5578;DHT22;2811;51.900;10.734;2022-07-06T13:50:36;22.40;83.90
5578;DHT22;2811;51.900;10.734;2022-07-06T13:53:02;22.80;81.00
5578;DHT22;2811;51.900;10.734;2022-07-06T13:55:29;23.00;81.20
5578;DHT22;2811;51.900;10.734;2022-07-06T13:57:56;23.30;79.20
5578;DHT22;2811;51.900;10.734;2022-07-06T14:00:24;23.40;79.90
5578;DHT22;2811;51.900;10.734;2022-07-06T14:02:51;23.50;78.60
5578;DHT22;2811;51.900;10.734;2022-07-06T14:05:18;23.60;79.00
5578;DHT22;2811;51.900;10.734;2022-07-06T14:07:45;23.10;78.80
5578;DHT22;2811;51.900;10.734;2022-07-06T14:10:11;22.70;80.10
5578;DHT22;2811;51.900;10.734;2022-07-06T14:12:38;22.20;81.20
5578;DHT22;2811;51.900;10.734;2022-07-06T14:15:06;22.20;81.80
5578;DHT22;2811;51.900;10.734;2022-07-06T14:17:34;22.20;80.80
5578;DHT22;2811;51.900;10.734;2022-07-06T14:20:00;22.10;81.10
5578;DHT22;2811;51.900;10.734;2022-07-06T14:22:27;21.90;81.00
5578;DHT22;2811;51.900;10.734;2022-07-06T14:24:54;22.00;82.60
5578;DHT22;2811;51.900;10.734;2022-07-06T14:27:20;21.80;81.60
5578;DHT22;2811;51.900;10.734;2022-07-06T14:29:47;21.70;83.30
5578;DHT22;2811;51.900;10.734;2022-07-06T14:32:14;21.70;81.70
5578;DHT22;2811;51.900;10.734;2022-07-06T14:34:41;21.60;81.60
5578;DHT22;2811;51.900;10.734;2022-07-06T14:37:08;21.40;83.30
5578;DHT22;2811;51.900;10.734;2022-07-06T14:39:35;21.30;84.10
5578;DHT22;2811;51.900;10.734;2022-07-06T14:42:02;21.30;85.60
5578;DHT22;2811;51.900;10.734;2022-07-06T14:44:29;21.40;84.90
5578;DHT22;2811;51.900;10.734;2022-07-06T14:46:55;21.40;85.10
5578;DHT22;2811;51.900;10.734;2022-07-06T14:49:22;21.30;87.50
5578;DHT22;2811;51.900;10.734;2022-07-06T14:51:50;21.10;87.50
5578;DHT22;2811;51.900;10.734;2022-07-06T14:54:16;20.90;88.80
5578;DHT22;2811;51.900;10.734;2022-07-06T14:56:43;20.80;89.10
5578;DHT22;2811;51.900;10.734;2022-07-06T14:59:10;20.80;89.20
5578;DHT22;2811;51.900;10.734;2022-07-06T15:01:36;20.90;89.30
5578;DHT22;2811;51.900;10.734;2022-07-06T15:04:03;21.00;88.80
5578;DHT22;2811;51.900;10.734;2022-07-06T15:06:31;21.20;88.50
5578;DHT22;2811;51.900;10.734;2022-07-06T15:08:58;21.40;88.10
5578;DHT22;2811;51.900;10.734;2022-07-06T15:11:26;21.60;86.40
5578;DHT22;2811;51.900;10.734;2022-07-06T15:13:53;21.80;86.00
5578;DHT22;2811;51.900;10.734;2022-07-06T15:16:19;21.50;85.80
5578;DHT22;2811;51.900;10.734;2022-07-06T15:18:46;21.30;86.90
5578;DHT22;2811;51.900;10.734;2022-07-06T15:21:12;21.50;86.90
5578;DHT22;2811;51.900;10.734;2022-07-06T15:23:39;21.70;86.70
5578;DHT22;2811;51.900;10.734;2022-07-06T15:26:08;21.80;86.60
5578;DHT22;2811;51.900;10.734;2022-07-06T15:28:36;21.70;86.60
5578;DHT22;2811;51.900;10.734;2022-07-06T15:31:02;21.50;86.80
5578;DHT22;2811;51.900;10.734;2022-07-06T15:33:29;21.20;88.10
5578;DHT22;2811;51.900;10.734;2022-07-06T15:35:56;20.70;88.50
5578;DHT22;2811;51.900;10.734;2022-07-06T15:38:22;21.10;89.40
5578;DHT22;2811;51.900;10.734;2022-07-06T15:40:49;21.70;90.00
5578;DHT22;2811;51.900;10.734;2022-07-06T15:43:22;22.50;87.50
5578;DHT22;2811;51.900;10.734;2022-07-06T15:45:54;23.30;85.90
5578;DHT22;2811;51.900;10.734;2022-07-06T15:48:22;24.40;82.10